createdAt,value
2022-11-21T00:01:24.917Z,-1.55
2022-11-21T00:03:52.803Z,-1.57
2022-11-21T00:06:21.041Z,-1.59
2022-11-21T00:08:49.109Z,-1.64
2022-11-21T00:11:17.323Z,-1.67
2022-11-21T00:13:45.326Z,-1.68
2022-11-21T00:16:15.063Z,-1.73
2022-11-21T00:18:44.235Z,-1.84
2022-11-21T00:21:14.576Z,-1.88
2022-11-21T00:23:43.488Z,-1.87
2022-11-21T00:26:12.780Z,-1.88
2022-11-21T00:28:41.025Z,-1.83
2022-11-21T00:31:09.220Z,-1.88
2022-11-21T00:33:39.066Z,-1.94
2022-11-21T00:36:08.548Z,-1.92
2022-11-21T00:38:36.774Z,-1.91
2022-11-21T00:41:05.373Z,-1.88
2022-11-21T00:43:33.419Z,-1.84
2022-11-21T00:46:02.830Z,-1.77
2022-11-21T00:48:31.874Z,-1.74
2022-11-21T00:51:00.696Z,-1.72
2022-11-21T00:53:29.477Z,-1.70
2022-11-21T00:55:57.833Z,-1.64
2022-11-21T00:58:26.544Z,-1.60
2022-11-21T01:01:02.750Z,-1.54
2022-11-21T01:03:32.563Z,-1.50
2022-11-21T01:06:05.748Z,-1.42
2022-11-21T01:08:35.982Z,-1.32
2022-11-21T01:11:05.496Z,-1.31
2022-11-21T01:13:34.183Z,-1.27
2022-11-21T01:16:04.877Z,-1.21
2022-11-21T01:18:33.044Z,-1.10
2022-11-21T01:21:02.395Z,-1.00
2022-11-21T01:23:30.313Z,-0.88
2022-11-21T01:26:02.832Z,-0.79
2022-11-21T01:28:31.159Z,-0.76
2022-11-21T01:31:06.997Z,-0.71
2022-11-21T01:33:35.643Z,-0.66
2022-11-21T01:36:18.489Z,-0.59
2022-11-21T01:38:48.498Z,-0.49
2022-11-21T01:41:29.966Z,-0.42
2022-11-21T01:43:58.374Z,-0.34
2022-11-21T01:46:26.561Z,-0.31
2022-11-21T01:48:54.250Z,-0.27
2022-11-21T01:51:32.393Z,-0.24
2022-11-21T01:54:07.844Z,-0.21
2022-11-21T01:56:45.035Z,-0.19
2022-11-21T01:59:18.965Z,-0.19
2022-11-21T02:01:47.643Z,-0.16
2022-11-21T02:04:15.765Z,-0.15
2022-11-21T02:06:44.098Z,-0.17
2022-11-21T02:09:12.045Z,-0.19
2022-11-21T02:11:49.637Z,-0.17
2022-11-21T02:14:18.076Z,-0.14
2022-11-21T02:16:46.783Z,-0.07
2022-11-21T02:19:20.970Z,-0.03
2022-11-21T02:22:08.127Z,-0.05
2022-11-21T02:24:55.331Z,0.00
2022-11-21T02:27:23.421Z,0.04
2022-11-21T02:29:51.186Z,0.05
2022-11-21T02:32:23.724Z,0.07
2022-11-21T02:34:51.456Z,0.06
2022-11-21T02:37:19.427Z,0.04
2022-11-21T02:39:47.680Z,0.02
2022-11-21T02:42:52.494Z,0.04
2022-11-21T02:45:20.711Z,0.02
2022-11-21T02:47:50.746Z,0.00
2022-11-21T02:50:24.073Z,0.02
2022-11-21T02:52:51.851Z,0.01
2022-11-21T02:55:19.587Z,-0.01
2022-11-21T02:57:47.478Z,-0.02
2022-11-21T03:00:16.113Z,-0.01
2022-11-21T03:02:43.906Z,0.05
2022-11-21T03:05:17.429Z,0.09
2022-11-21T03:07:45.928Z,0.14
2022-11-21T03:10:13.874Z,0.20
2022-11-21T03:12:42.834Z,0.21
2022-11-21T03:15:13.292Z,0.19
2022-11-21T03:17:41.434Z,0.19
2022-11-21T03:20:10.213Z,0.21
2022-11-21T03:22:37.911Z,0.26
2022-11-21T03:25:05.921Z,0.31
2022-11-21T03:27:33.985Z,0.31
2022-11-21T03:30:01.737Z,0.28
2022-11-21T03:36:48.087Z,0.21
2022-11-21T03:39:15.879Z,0.19
2022-11-21T03:41:43.601Z,0.15
2022-11-21T03:44:12.184Z,0.12
2022-11-21T03:46:42.287Z,0.14
2022-11-21T03:49:10.904Z,0.18
2022-11-21T03:51:38.700Z,0.21
2022-11-21T03:54:07.575Z,0.20
2022-11-21T03:56:36.139Z,0.18
2022-11-21T03:59:04.190Z,0.18
2022-11-21T04:01:36.360Z,0.14
2022-11-21T04:04:05.815Z,0.18
2022-11-21T04:06:33.732Z,0.19
2022-11-21T04:09:01.803Z,0.22
2022-11-21T04:11:29.685Z,0.21
2022-11-21T04:13:57.488Z,0.20
2022-11-21T04:16:25.271Z,0.18
2022-11-21T04:18:52.958Z,0.19
2022-11-21T04:21:20.990Z,0.23
2022-11-21T04:23:48.690Z,0.27
2022-11-21T04:26:16.422Z,0.29
2022-11-21T04:28:44.182Z,0.31
2022-11-21T04:31:11.884Z,0.38
2022-11-21T04:33:39.797Z,0.38
2022-11-21T04:36:08.610Z,0.42
2022-11-21T04:38:37.011Z,0.43
2022-11-21T04:41:05.117Z,0.44
2022-11-21T04:43:33.186Z,0.46
2022-11-21T04:46:01.205Z,0.46
2022-11-21T04:48:28.959Z,0.45
2022-11-21T04:50:56.707Z,0.41
2022-11-21T04:53:24.428Z,0.38
2022-11-21T04:55:52.202Z,0.34
2022-11-21T04:58:20.491Z,0.30
2022-11-21T05:00:48.280Z,0.32
2022-11-21T05:03:16.065Z,0.36
2022-11-21T05:05:44.026Z,0.41
2022-11-21T05:08:12.124Z,0.43
2022-11-21T05:10:58.504Z,0.44
2022-11-21T05:13:26.784Z,0.47
2022-11-21T05:15:58.068Z,0.49
2022-11-21T05:18:26.004Z,0.53
2022-11-21T05:20:53.901Z,0.56
2022-11-21T05:23:21.776Z,0.52
2022-11-21T05:25:49.536Z,0.47
2022-11-21T05:28:17.291Z,0.45
2022-11-21T05:30:45.139Z,0.46
2022-11-21T05:33:12.887Z,0.51
2022-11-21T05:35:43.441Z,0.56
2022-11-21T05:38:11.904Z,0.65
2022-11-21T05:40:39.745Z,0.72
2022-11-21T05:43:26.290Z,0.79
2022-11-21T05:45:54.000Z,0.84
2022-11-21T05:48:21.744Z,0.83
2022-11-21T05:50:49.870Z,0.86
2022-11-21T05:53:17.871Z,0.88
2022-11-21T05:55:45.892Z,0.95
2022-11-21T05:58:13.907Z,1.00
2022-11-21T06:00:41.670Z,1.05
2022-11-21T06:03:28.125Z,1.06
2022-11-21T06:06:05.090Z,1.06
2022-11-21T06:08:38.134Z,1.06
2022-11-21T06:11:06.948Z,1.11
2022-11-21T06:13:36.405Z,1.15
2022-11-21T06:16:06.962Z,1.16
2022-11-21T06:18:40.053Z,1.14
2022-11-21T06:21:19.440Z,1.10
2022-11-21T06:23:48.085Z,1.08
2022-11-21T06:26:17.582Z,1.13
2022-11-21T06:28:46.059Z,1.15
2022-11-21T06:31:15.876Z,1.17
2022-11-21T06:33:44.547Z,1.21
2022-11-21T06:36:16.927Z,1.23
2022-11-21T06:38:45.699Z,1.22
2022-11-21T06:41:18.917Z,1.26
2022-11-21T06:43:47.275Z,1.30
2022-11-21T06:46:15.698Z,1.35
2022-11-21T06:48:43.682Z,1.38
2022-11-21T06:51:16.908Z,1.41
2022-11-21T06:53:44.983Z,1.44
2022-11-21T06:56:12.766Z,1.48
2022-11-21T06:58:40.652Z,1.50
2022-11-21T07:01:10.400Z,1.52
2022-11-21T07:03:38.306Z,1.47
2022-11-21T07:06:06.585Z,1.43
2022-11-21T07:08:36.048Z,1.43
2022-11-21T07:11:25.237Z,1.42
2022-11-21T07:13:53.762Z,1.46
2022-11-21T07:16:21.553Z,1.47
2022-11-21T07:18:49.285Z,1.50
2022-11-21T07:21:17.178Z,1.51
2022-11-21T07:23:44.891Z,1.56
2022-11-21T07:26:12.622Z,1.61
2022-11-21T07:28:40.531Z,1.63
2022-11-21T07:31:13.587Z,1.64
2022-11-21T07:33:43.681Z,1.68
2022-11-21T07:36:12.628Z,1.72
2022-11-21T07:38:41.591Z,1.72
2022-11-21T07:41:09.976Z,1.70
2022-11-21T07:43:37.796Z,1.65
2022-11-21T07:46:05.567Z,1.65
2022-11-21T07:48:33.330Z,1.67
2022-11-21T07:51:04.792Z,1.66
2022-11-21T07:53:32.723Z,1.65
2022-11-21T07:56:00.808Z,1.66
2022-11-21T07:58:29.088Z,1.72
2022-11-21T08:00:57.183Z,1.74
2022-11-21T08:03:25.456Z,1.73
2022-11-21T08:05:53.277Z,1.76
2022-11-21T08:08:21.003Z,1.80
2022-11-21T08:10:48.849Z,1.84
2022-11-21T08:13:16.645Z,1.86
2022-11-21T08:15:44.410Z,1.87
2022-11-21T08:18:14.246Z,1.88
2022-11-21T08:20:42.894Z,1.86
2022-11-21T08:23:13.226Z,1.91
2022-11-21T08:25:41.909Z,1.96
2022-11-21T08:28:11.126Z,2.02
2022-11-21T08:30:40.276Z,2.06
2022-11-21T08:33:08.149Z,2.13
2022-11-21T08:35:38.199Z,2.23
2022-11-21T08:38:06.406Z,2.32
2022-11-21T08:40:35.045Z,2.38
2022-11-21T08:43:04.389Z,2.42
2022-11-21T08:45:34.018Z,2.49
2022-11-21T08:48:01.895Z,2.55
2022-11-21T08:50:29.722Z,2.52
2022-11-21T08:53:01.775Z,2.49
2022-11-21T08:55:30.178Z,2.51
2022-11-21T08:57:58.465Z,2.50
2022-11-21T09:00:26.781Z,2.52
2022-11-21T09:02:54.518Z,2.56
2022-11-21T09:05:22.314Z,2.60
2022-11-21T09:07:56.326Z,2.70
2022-11-21T09:10:25.201Z,2.84
2022-11-21T09:12:53.375Z,2.95
2022-11-21T09:15:39.780Z,3.10
2022-11-21T09:18:08.246Z,3.38
2022-11-21T09:20:41.629Z,3.60
2022-11-21T09:23:11.684Z,3.71
2022-11-21T09:25:39.664Z,3.90
2022-11-21T09:28:09.524Z,4.09
2022-11-21T09:30:37.707Z,4.22
2022-11-21T09:33:11.446Z,4.33
2022-11-21T09:35:39.550Z,4.41
2022-11-21T09:38:07.640Z,4.53
2022-11-21T09:40:36.053Z,4.62
2022-11-21T09:43:54.455Z,4.64
2022-11-21T09:46:28.796Z,4.60
2022-11-21T09:49:01.275Z,4.59
2022-11-21T09:51:31.016Z,4.60
2022-11-21T09:54:05.259Z,4.70
2022-11-21T09:56:37.029Z,4.75
2022-11-21T09:59:23.265Z,4.84
2022-11-21T10:01:51.369Z,4.91
2022-11-21T10:04:19.139Z,4.96
2022-11-21T10:07:07.406Z,4.98
2022-11-21T10:10:04.621Z,5.02
2022-11-21T10:12:47.785Z,5.05
2022-11-21T10:15:53.280Z,5.10
2022-11-21T10:18:36.727Z,5.09
2022-11-21T10:21:27.411Z,5.12
2022-11-21T10:24:23.096Z,5.16
2022-11-21T10:26:53.619Z,5.17
2022-11-21T10:29:37.708Z,5.23
2022-11-21T10:32:18.744Z,5.24
2022-11-21T10:34:47.155Z,5.24
2022-11-21T10:37:29.297Z,5.24
2022-11-21T10:39:58.835Z,5.18
2022-11-21T10:42:45.325Z,5.16
2022-11-21T10:45:18.691Z,5.06
2022-11-21T10:47:49.395Z,5.02
2022-11-21T10:50:50.218Z,4.99
2022-11-21T10:53:38.798Z,4.91
2022-11-21T10:56:12.693Z,4.84
2022-11-21T10:58:45.978Z,4.80
2022-11-21T11:01:22.780Z,4.75
2022-11-21T11:07:00.277Z,4.69
2022-11-21T11:09:35.252Z,4.67
2022-11-21T11:12:23.973Z,4.69
2022-11-21T11:14:53.635Z,4.71
2022-11-21T11:17:32.877Z,4.79
2022-11-21T11:20:07.758Z,4.87
2022-11-21T11:22:35.574Z,4.98
2022-11-21T11:25:05.311Z,5.03
2022-11-21T11:27:33.096Z,5.09
2022-11-21T11:30:07.124Z,5.21
2022-11-21T11:32:39.602Z,5.32
2022-11-21T11:35:13.097Z,5.34
2022-11-21T11:37:54.676Z,5.33
2022-11-21T11:40:33.234Z,5.30
2022-11-21T11:43:47.168Z,5.19
2022-11-21T11:47:00.185Z,4.99
2022-11-21T11:49:31.253Z,4.83
2022-11-21T11:52:01.996Z,4.75
2022-11-21T11:54:40.036Z,4.69
2022-11-21T11:57:09.545Z,4.64
2022-11-21T11:59:41.741Z,4.56
2022-11-21T12:02:19.537Z,4.57
2022-11-21T12:04:54.515Z,4.56
2022-11-21T12:11:01.377Z,4.40
2022-11-21T12:13:30.151Z,4.34
2022-11-21T12:16:08.503Z,4.37
2022-11-21T12:18:58.785Z,4.35
2022-11-21T12:21:26.713Z,4.24
2022-11-21T12:23:56.429Z,4.22
2022-11-21T12:26:43.128Z,4.17
2022-11-21T12:29:24.615Z,4.18
2022-11-21T12:32:15.405Z,4.16
2022-11-21T12:34:47.102Z,4.14
2022-11-21T12:37:53.073Z,4.12
2022-11-21T12:40:38.806Z,4.09
2022-11-21T12:43:32.445Z,4.07
2022-11-21T12:46:11.817Z,4.03
2022-11-21T12:49:23.139Z,4.02
2022-11-21T12:52:32.291Z,4.07
2022-11-21T12:55:14.451Z,3.99
2022-11-21T12:57:54.391Z,3.90
2022-11-21T13:00:32.186Z,3.90
2022-11-21T13:03:27.943Z,3.93
2022-11-21T13:05:57.278Z,3.84
2022-11-21T13:08:28.558Z,3.71
2022-11-21T13:11:43.196Z,3.60
2022-11-21T13:14:40.157Z,3.55
2022-11-21T13:17:26.241Z,3.56
2022-11-21T13:19:58.488Z,3.57
2022-11-21T13:22:35.315Z,3.53
2022-11-21T13:25:09.085Z,3.47
2022-11-21T13:27:44.688Z,3.42
2022-11-21T13:30:12.461Z,3.39
2022-11-21T13:32:56.053Z,3.37
2022-11-21T13:35:23.738Z,3.36
2022-11-21T13:38:05.263Z,3.32
2022-11-21T13:40:38.267Z,3.33
2022-11-21T13:43:31.927Z,3.32
2022-11-21T13:45:59.240Z,3.28
2022-11-21T13:48:54.950Z,3.22
2022-11-21T13:51:46.673Z,3.11
2022-11-21T13:54:36.586Z,3.05
2022-11-21T13:57:26.953Z,2.91
2022-11-21T14:00:06.845Z,2.79
2022-11-21T14:02:38.167Z,2.75
2022-11-21T14:05:12.256Z,2.63
2022-11-21T14:07:41.214Z,2.59
2022-11-21T14:10:25.193Z,2.55
2022-11-21T14:12:54.750Z,2.56
2022-11-21T14:15:48.526Z,2.59
2022-11-21T14:18:39.739Z,2.56
2022-11-21T14:21:20.006Z,2.52
2022-11-21T14:23:48.519Z,2.44
2022-11-21T14:26:19.950Z,2.46
2022-11-21T14:28:47.909Z,2.49
2022-11-21T14:31:16.072Z,2.59
2022-11-21T14:33:44.772Z,2.70
2022-11-21T14:36:25.909Z,2.75
2022-11-21T14:39:35.412Z,2.75
2022-11-21T14:41:51.967Z,2.63
2022-11-21T14:44:21.418Z,2.57
2022-11-21T14:46:50.401Z,2.43
2022-11-21T14:49:23.544Z,2.32
2022-11-21T14:51:54.269Z,2.27
2022-11-21T14:54:23.700Z,2.19
2022-11-21T14:57:07.976Z,2.12
2022-11-21T14:59:39.983Z,2.01
2022-11-21T15:02:20.056Z,1.97
2022-11-21T15:04:50.594Z,2.04
2022-11-21T15:07:18.429Z,2.15
2022-11-21T15:10:26.941Z,2.22
2022-11-21T15:12:45.706Z,2.21
2022-11-21T15:15:34.497Z,2.21
2022-11-21T15:18:26.496Z,2.21
2022-11-21T15:20:55.536Z,2.25
2022-11-21T15:23:26.386Z,2.26
2022-11-21T15:26:00.398Z,2.24
2022-11-21T15:28:30.050Z,2.27
2022-11-21T15:31:20.554Z,2.33
2022-11-21T15:34:19.219Z,2.37
2022-11-21T15:36:43.364Z,2.36
2022-11-21T15:39:18.317Z,2.35
2022-11-21T15:41:46.208Z,2.34
2022-11-21T15:44:20.321Z,2.38
2022-11-21T15:46:51.669Z,2.41
2022-11-21T15:49:32.331Z,2.48
2022-11-21T15:52:09.808Z,2.46
2022-11-21T15:54:38.240Z,2.39
2022-11-21T15:57:06.267Z,2.39
2022-11-21T15:59:34.155Z,2.44
2022-11-21T16:02:04.944Z,2.46
2022-11-21T16:04:33.088Z,2.50
2022-11-21T16:07:01.070Z,2.54
2022-11-21T16:09:29.710Z,2.50
2022-11-21T16:11:57.753Z,2.46
2022-11-21T16:14:25.610Z,2.47
2022-11-21T16:16:53.395Z,2.54
2022-11-21T16:19:21.211Z,2.60
2022-11-21T16:21:49.039Z,2.66
2022-11-21T16:24:16.967Z,2.66
2022-11-21T16:26:45.015Z,2.69
2022-11-21T16:29:12.817Z,2.72
2022-11-21T16:31:40.644Z,2.75
2022-11-21T16:34:08.427Z,2.79
2022-11-21T16:36:36.327Z,2.80
2022-11-21T16:39:10.079Z,2.79
2022-11-21T16:41:41.276Z,2.79
2022-11-21T16:44:14.193Z,2.72
2022-11-21T16:46:44.888Z,2.64
2022-11-21T16:49:13.119Z,2.66
2022-11-21T16:51:41.266Z,2.70
2022-11-21T16:54:09.789Z,2.76
2022-11-21T16:56:38.118Z,2.74
2022-11-21T16:59:06.580Z,2.67
2022-11-21T17:01:34.835Z,2.59
2022-11-21T17:04:02.725Z,2.62
2022-11-21T17:06:31.076Z,2.66
2022-11-21T17:09:01.231Z,2.73
2022-11-21T17:11:31.125Z,2.78
2022-11-21T17:14:04.968Z,2.79
2022-11-21T17:16:35.855Z,2.74
2022-11-21T17:19:25.759Z,2.63
2022-11-21T17:36:27.835Z,3.36
2022-11-21T17:38:56.145Z,3.48
2022-11-21T17:41:25.454Z,3.42
2022-11-21T17:43:56.172Z,3.40
2022-11-21T17:46:29.864Z,3.41
2022-11-21T17:49:49.774Z,3.43
2022-11-21T17:52:23.014Z,3.40
2022-11-21T17:59:45.223Z,3.30
2022-11-21T18:02:13.619Z,3.21
2022-11-21T18:05:23.743Z,3.06
2022-11-21T18:31:30.102Z,3.03
2022-11-21T18:33:59.599Z,3.08
2022-11-21T18:36:27.788Z,3.00
2022-11-21T18:39:05.974Z,2.95
2022-11-21T18:42:04.598Z,2.94
2022-11-21T18:44:33.996Z,2.92
2022-11-21T18:47:16.068Z,2.93
2022-11-21T18:49:56.293Z,2.95
2022-11-21T18:52:27.353Z,2.97
2022-11-21T18:54:54.702Z,2.97
2022-11-21T18:57:21.850Z,2.97
2022-11-21T18:59:48.988Z,2.93
2022-11-21T19:02:19.106Z,2.85
2022-11-21T19:04:46.267Z,2.79
2022-11-21T19:12:21.079Z,2.78
2022-11-21T19:14:56.452Z,2.77
2022-11-21T19:17:34.058Z,2.82
2022-11-21T19:20:05.127Z,2.83
2022-11-21T19:22:32.516Z,2.81
2022-11-21T19:25:36.391Z,2.75
2022-11-21T19:28:04.064Z,2.64
2022-11-21T19:30:36.938Z,2.58
2022-11-21T19:34:24.720Z,2.57
2022-11-21T19:38:19.623Z,2.48
2022-11-21T19:41:52.215Z,2.30
2022-11-21T19:45:15.352Z,2.23
2022-11-21T19:48:36.850Z,2.12
2022-11-21T19:51:19.265Z,2.03
2022-11-21T19:54:02.764Z,1.95
2022-11-21T19:56:32.304Z,1.90
2022-11-21T19:59:01.796Z,1.85
2022-11-21T20:01:36.043Z,1.79
2022-11-21T20:04:21.182Z,1.78
2022-11-21T20:06:51.994Z,1.80
2022-11-21T20:09:21.888Z,1.78
2022-11-21T20:11:52.263Z,1.78
2022-11-21T20:14:23.516Z,1.79
2022-11-21T20:16:54.841Z,1.79
2022-11-21T20:19:24.917Z,1.77
2022-11-21T20:21:55.449Z,1.73
2022-11-21T20:24:23.994Z,1.72
2022-11-21T20:26:52.124Z,1.72
2022-11-21T20:29:25.072Z,1.72
2022-11-21T20:48:45.557Z,1.48
2022-11-21T20:54:37.235Z,1.52
2022-11-21T21:05:39.670Z,1.32
2022-11-21T21:09:12.360Z,1.38
2022-11-21T21:11:55.655Z,1.39
2022-11-21T21:14:24.142Z,1.38
2022-11-21T21:16:51.919Z,1.45
2022-11-21T21:19:22.516Z,1.46
2022-11-21T21:21:50.301Z,1.54
2022-11-21T21:24:18.409Z,1.61
2022-11-21T21:26:48.002Z,1.67
2022-11-21T21:29:19.323Z,1.61
2022-11-21T21:31:51.503Z,1.49
2022-11-21T21:34:21.889Z,1.42
2022-11-21T21:36:51.175Z,1.44
2022-11-21T21:39:19.094Z,1.44
2022-11-21T21:41:47.898Z,1.49
2022-11-21T21:44:16.371Z,1.51
2022-11-21T21:46:45.130Z,1.54
2022-11-21T21:49:13.395Z,1.59
2022-11-21T21:51:41.384Z,1.62
2022-11-21T21:54:20.017Z,1.66
2022-11-21T21:56:47.975Z,1.69
2022-11-21T21:59:15.814Z,1.72
2022-11-21T22:01:43.797Z,1.79
2022-11-21T22:04:12.921Z,1.85
2022-11-21T22:06:40.712Z,1.85
2022-11-21T22:09:09.117Z,1.88
2022-11-21T22:11:38.379Z,1.95
2022-11-21T22:14:16.041Z,1.99
2022-11-21T22:16:44.335Z,2.02
2022-11-21T22:19:12.580Z,1.95
2022-11-21T22:21:40.419Z,1.85
2022-11-21T22:24:29.241Z,1.79
2022-11-21T22:26:57.136Z,1.76
2022-11-21T22:29:25.301Z,1.78
2022-11-21T22:31:53.416Z,1.83
2022-11-21T22:34:22.075Z,1.87
2022-11-21T22:36:49.996Z,1.92
2022-11-21T22:39:18.083Z,1.89
2022-11-21T22:41:46.172Z,1.91
2022-11-21T22:44:13.919Z,1.97
2022-11-21T22:46:41.883Z,2.04
2022-11-21T22:49:09.651Z,2.07
2022-11-21T22:51:37.426Z,2.12
2022-11-21T22:54:05.245Z,2.14
2022-11-21T22:56:33.269Z,2.09
2022-11-21T22:59:01.123Z,2.04
2022-11-21T23:01:28.921Z,2.04
2022-11-21T23:03:56.882Z,2.03
2022-11-21T23:06:26.549Z,2.07
2022-11-21T23:08:55.705Z,2.09
2022-11-21T23:11:29.327Z,2.10
2022-11-21T23:13:57.825Z,2.06
2022-11-21T23:16:26.234Z,2.03
2022-11-21T23:18:55.444Z,1.99
2022-11-21T23:21:23.266Z,1.93
2022-11-21T23:23:50.998Z,1.91
2022-11-21T23:26:19.378Z,1.91
2022-11-21T23:28:47.126Z,1.93
2022-11-21T23:31:15.206Z,2.05
2022-11-21T23:33:43.086Z,2.13
2022-11-21T23:36:10.809Z,2.17
2022-11-21T23:38:38.613Z,2.20
2022-11-21T23:41:06.377Z,2.19
2022-11-21T23:43:34.218Z,2.17
2022-11-21T23:46:01.999Z,2.13
2022-11-21T23:48:29.815Z,2.13
2022-11-21T23:50:57.550Z,2.11
2022-11-21T23:53:25.397Z,2.10
2022-11-21T23:55:53.307Z,2.06
2022-11-21T23:58:21.072Z,2.02
